Terminal Aerodrome Forecast
Issued by NWS

Home | Current Version | Previous Version | Graphics & Text | Print | Product List | Glossary On
Versions: 1 2 3 4 5 6 7 8 9 10 11 12 13 14 15 16 17 18 19
000
FTUS43 KFGF 280700 AAA
TAFBJI
TAF AMD
KBJI 280746Z 2808/2906 21004KT 3SM FEW005 SCT250
      TEMPO 2808/2811 1/2SM FG VV002
     FM281100 19005KT P6SM SCT060
     FM281500 18009KT P6SM BKN060=

USA.gov is the U.S. government's official web portal to all federal, state and local government web resources and services.